createdAt,value
2023-04-16T00:00:57.242Z,6.00
2023-04-16T00:01:58.938Z,6.03
2023-04-16T00:03:00.678Z,3.70
2023-04-16T00:04:02.931Z,4.10
2023-04-16T00:05:05.319Z,5.33
2023-04-16T00:06:07.200Z,5.47
2023-04-16T00:07:08.787Z,6.20
2023-04-16T00:08:10.304Z,6.13
2023-04-16T00:09:11.913Z,5.73
2023-04-16T00:10:14.466Z,5.27
2023-04-16T00:11:15.988Z,7.00
2023-04-16T00:12:17.640Z,7.23
2023-04-16T00:13:19.253Z,6.50
2023-04-16T00:14:20.860Z,4.47
2023-04-16T00:15:22.527Z,6.57
2023-04-16T00:16:24.103Z,6.20
2023-04-16T00:17:25.764Z,7.37
2023-04-16T00:18:27.746Z,4.10
2023-04-16T00:19:29.358Z,6.00
2023-04-16T00:20:31.005Z,8.13
2023-04-16T00:21:32.575Z,6.10
2023-04-16T00:22:34.095Z,7.90
2023-04-16T00:23:35.800Z,8.97
2023-04-16T00:24:37.319Z,4.83
2023-04-16T00:25:38.854Z,6.70
2023-04-16T00:26:41.031Z,5.37
2023-04-16T00:27:42.613Z,4.73
2023-04-16T00:28:44.129Z,4.77
2023-04-16T00:29:45.790Z,7.10
2023-04-16T00:30:47.338Z,5.63
2023-04-16T00:31:48.935Z,6.03
2023-04-16T00:32:50.515Z,5.07
2023-04-16T00:33:52.018Z,4.47
2023-04-16T00:34:53.574Z,5.90
2023-04-16T00:35:55.100Z,4.70
2023-04-16T00:36:56.600Z,5.00
2023-04-16T00:37:58.102Z,4.73
2023-04-16T00:38:59.657Z,6.10
2023-04-16T00:40:01.475Z,8.40
2023-04-16T00:41:03.040Z,4.60
2023-04-16T00:42:04.561Z,7.50
2023-04-16T00:43:06.226Z,6.73
2023-04-16T00:44:07.786Z,4.83
2023-04-16T00:45:10.377Z,7.20
2023-04-16T00:46:12.127Z,7.03
2023-04-16T00:47:13.829Z,5.93
2023-04-16T00:48:15.584Z,6.77
2023-04-16T00:49:17.400Z,6.30
2023-04-16T00:50:19.104Z,6.57
2023-04-16T00:51:21.673Z,5.80
2023-04-16T00:52:23.205Z,5.43
2023-04-16T00:53:25.641Z,5.67
2023-04-16T00:54:27.221Z,4.33
2023-04-16T00:55:29.197Z,5.50
2023-04-16T00:56:30.985Z,5.13
2023-04-16T00:57:32.542Z,5.03
2023-04-16T00:58:35.646Z,5.97
2023-04-16T00:59:37.434Z,5.10
2023-04-16T01:00:38.965Z,3.57
2023-04-16T01:01:40.579Z,4.23
2023-04-16T01:02:42.478Z,4.53
2023-04-16T01:03:46.436Z,4.63
2023-04-16T01:04:48.175Z,6.80
2023-04-16T01:05:50.610Z,4.73
2023-04-16T01:06:52.272Z,5.67
2023-04-16T01:07:53.973Z,6.70
2023-04-16T01:08:55.609Z,4.37
2023-04-16T01:09:57.562Z,5.90
2023-04-16T01:10:59.159Z,4.50
2023-04-16T01:12:02.137Z,5.97
2023-04-16T01:13:03.671Z,4.93
2023-04-16T01:14:05.490Z,4.97
2023-04-16T01:15:07.787Z,7.00
2023-04-16T01:16:11.287Z,4.50
2023-04-16T01:17:12.900Z,4.83
2023-04-16T01:18:18.722Z,4.97
2023-04-16T01:19:20.383Z,5.07
2023-04-16T01:20:22.006Z,4.40
2023-04-16T01:21:23.581Z,4.73
2023-04-16T01:22:25.096Z,4.07
2023-04-16T01:23:26.603Z,4.20
2023-04-16T01:24:28.317Z,6.77
2023-04-16T01:25:29.864Z,6.80
2023-04-16T01:26:31.868Z,7.50
2023-04-16T01:27:33.507Z,8.33
2023-04-16T01:28:35.347Z,8.23
2023-04-16T01:29:37.122Z,9.33
2023-04-16T01:30:38.729Z,10.47
2023-04-16T01:31:40.455Z,11.40
2023-04-16T01:32:42.113Z,8.33
2023-04-16T01:33:43.696Z,9.53
2023-04-16T01:34:45.502Z,9.77
2023-04-16T01:35:47.129Z,9.67
2023-04-16T01:36:48.655Z,7.00
2023-04-16T01:37:51.065Z,8.00
2023-04-16T01:38:52.623Z,8.57
2023-04-16T01:39:54.239Z,8.27
2023-04-16T01:40:59.603Z,8.13
2023-04-16T01:42:02.430Z,7.53
2023-04-16T01:43:04.700Z,7.23
2023-04-16T01:44:06.437Z,8.87
2023-04-16T01:45:08.404Z,9.83
2023-04-16T01:46:18.731Z,8.40
2023-04-16T01:47:20.411Z,5.70
2023-04-16T01:48:22.189Z,8.57
2023-04-16T01:49:23.753Z,8.37
2023-04-16T01:50:25.321Z,7.03
2023-04-16T01:51:28.107Z,7.87
2023-04-16T01:52:30.297Z,8.83
2023-04-16T01:53:31.929Z,8.07
2023-04-16T01:54:33.433Z,7.73
2023-04-16T01:55:35.084Z,8.90
2023-04-16T01:56:36.620Z,6.60
2023-04-16T01:57:38.170Z,7.30
2023-04-16T01:58:41.360Z,6.27
2023-04-16T01:59:42.908Z,8.57
2023-04-16T02:00:44.507Z,6.33
2023-04-16T02:01:46.383Z,9.93
2023-04-16T02:02:49.454Z,6.90
2023-04-16T02:03:51.868Z,7.50
2023-04-16T02:04:53.853Z,12.90
2023-04-16T02:05:55.686Z,8.90
2023-04-16T02:06:57.224Z,8.73
2023-04-16T02:07:58.874Z,9.93
2023-04-16T02:09:00.495Z,9.60
2023-04-16T02:10:02.074Z,8.50
2023-04-16T02:11:03.737Z,7.03
2023-04-16T02:12:05.994Z,7.13
2023-04-16T02:13:07.561Z,6.00
2023-04-16T02:14:09.141Z,7.67
2023-04-16T02:15:11.233Z,8.97
2023-04-16T02:16:12.886Z,8.00
2023-04-16T02:17:15.609Z,8.77
2023-04-16T02:18:17.477Z,8.17
2023-04-16T02:19:19.074Z,7.17
2023-04-16T02:20:20.760Z,9.37
2023-04-16T02:21:22.345Z,8.00
2023-04-16T02:22:23.935Z,10.77
2023-04-16T02:23:25.638Z,6.77
2023-04-16T02:24:27.496Z,10.10
2023-04-16T02:25:29.087Z,8.37
2023-04-16T02:26:30.707Z,7.80
2023-04-16T02:27:32.329Z,7.00
2023-04-16T02:28:33.815Z,8.50
2023-04-16T02:29:35.829Z,6.77
2023-04-16T02:30:38.696Z,9.37
2023-04-16T02:31:40.411Z,7.70
2023-04-16T02:32:42.020Z,9.67
2023-04-16T02:33:43.727Z,8.43
2023-04-16T02:34:45.308Z,6.40
2023-04-16T02:35:48.682Z,7.23
2023-04-16T02:36:50.253Z,8.47
2023-04-16T02:37:51.832Z,8.87
2023-04-16T02:38:53.508Z,8.17
2023-04-16T02:39:55.251Z,8.30
2023-04-16T02:40:56.854Z,7.13
2023-04-16T02:41:59.438Z,10.03
2023-04-16T02:43:01.220Z,6.80
2023-04-16T02:44:02.804Z,8.03
2023-04-16T02:45:04.675Z,8.53
2023-04-16T02:46:06.724Z,6.93
2023-04-16T02:47:08.281Z,8.10
2023-04-16T02:48:10.042Z,7.67
2023-04-16T02:49:11.695Z,9.80
2023-04-16T02:50:13.661Z,9.43
2023-04-16T02:51:15.339Z,8.63
2023-04-16T02:52:16.868Z,10.33
2023-04-16T02:53:18.372Z,9.93
2023-04-16T02:54:19.882Z,9.63
2023-04-16T02:55:21.572Z,9.60
2023-04-16T02:56:23.081Z,11.83
2023-04-16T02:57:24.602Z,9.40
2023-04-16T02:58:27.020Z,12.23
2023-04-16T02:59:28.521Z,10.23
2023-04-16T03:00:30.124Z,8.90
2023-04-16T03:01:31.767Z,7.23
2023-04-16T03:02:33.592Z,9.50
2023-04-16T03:03:35.628Z,10.87
2023-04-16T03:04:37.298Z,8.83
2023-04-16T03:05:40.289Z,8.83
2023-04-16T03:06:42.076Z,8.80
2023-04-16T03:07:43.718Z,11.50
2023-04-16T03:08:45.429Z,11.53
2023-04-16T03:09:47.264Z,8.60
2023-04-16T03:10:48.895Z,10.10
2023-04-16T03:11:50.413Z,11.20
2023-04-16T03:12:51.992Z,8.40
2023-04-16T03:13:53.862Z,10.83
2023-04-16T03:14:55.473Z,8.43
2023-04-16T03:15:57.034Z,8.60
2023-04-16T03:16:58.779Z,7.60
2023-04-16T03:18:01.117Z,7.83
2023-04-16T03:19:02.753Z,10.27
2023-04-16T03:20:05.123Z,7.67
2023-04-16T03:21:06.684Z,11.13
2023-04-16T03:22:08.413Z,8.73
2023-04-16T03:23:10.008Z,10.73
2023-04-16T03:24:11.682Z,10.43
2023-04-16T03:25:13.659Z,9.03
2023-04-16T03:26:15.345Z,9.87
2023-04-16T03:27:16.902Z,9.53
2023-04-16T03:28:18.491Z,8.97
2023-04-16T03:29:20.459Z,8.17
2023-04-16T03:30:21.982Z,8.10
2023-04-16T03:31:26.649Z,9.37
2023-04-16T03:32:28.308Z,10.13
2023-04-16T03:33:29.903Z,10.07
2023-04-16T03:34:31.504Z,9.43
2023-04-16T03:35:33.404Z,7.87
2023-04-16T03:36:34.952Z,7.47
2023-04-16T03:37:36.510Z,8.23
2023-04-16T03:38:38.033Z,7.40
2023-04-16T03:39:39.634Z,7.63
2023-04-16T03:40:41.398Z,6.80
2023-04-16T03:41:43.028Z,9.90
2023-04-16T03:42:44.664Z,8.67
2023-04-16T03:43:46.229Z,8.10
2023-04-16T03:44:47.776Z,7.43
2023-04-16T03:45:49.303Z,9.10
2023-04-16T03:46:51.291Z,7.27
2023-04-16T03:47:53.018Z,8.10
2023-04-16T03:48:54.628Z,8.90
2023-04-16T03:49:56.202Z,8.87
2023-04-16T03:50:57.746Z,6.87
2023-04-16T03:51:59.384Z,9.33
2023-04-16T03:53:00.930Z,7.40
2023-04-16T03:54:02.499Z,7.63
2023-04-16T03:55:04.362Z,7.37
2023-04-16T03:56:06.206Z,6.57
2023-04-16T03:57:07.808Z,8.17
2023-04-16T03:58:09.708Z,8.73
2023-04-16T03:59:11.470Z,8.73
2023-04-16T04:00:13.314Z,6.37
2023-04-16T04:01:15.317Z,7.53
2023-04-16T04:02:17.046Z,8.63
2023-04-16T04:03:19.060Z,8.33
2023-04-16T04:04:21.239Z,8.83
2023-04-16T04:05:22.978Z,7.87
2023-04-16T04:06:24.561Z,6.70
2023-04-16T04:07:26.098Z,7.43
2023-04-16T04:08:27.653Z,6.30
2023-04-16T04:09:29.217Z,7.27
2023-04-16T04:10:37.323Z,8.33
2023-04-16T04:11:38.960Z,7.80
2023-04-16T04:12:40.584Z,6.70
2023-04-16T04:13:42.119Z,7.23
2023-04-16T04:14:43.631Z,7.77
2023-04-16T04:15:45.255Z,7.93
2023-04-16T04:16:46.878Z,5.30
2023-04-16T04:17:48.516Z,8.43
2023-04-16T04:18:50.236Z,7.70
2023-04-16T04:20:00.994Z,7.43
2023-04-16T04:21:07.591Z,7.73
2023-04-16T04:22:09.188Z,10.70
2023-04-16T04:23:10.968Z,8.30
2023-04-16T04:24:12.500Z,7.73
2023-04-16T04:25:14.346Z,8.13
2023-04-16T04:26:16.451Z,8.53
2023-04-16T04:27:18.013Z,9.90
2023-04-16T04:28:19.586Z,13.00
2023-04-16T04:29:21.225Z,13.13
2023-04-16T04:30:22.773Z,10.70
2023-04-16T04:31:24.450Z,11.33
2023-04-16T04:32:26.530Z,8.47
2023-04-16T04:33:28.661Z,10.60
2023-04-16T04:34:30.217Z,9.90
2023-04-16T04:35:31.865Z,9.53
2023-04-16T04:36:33.713Z,12.43
2023-04-16T04:37:35.304Z,11.97
2023-04-16T04:38:36.833Z,11.43
2023-04-16T04:39:38.406Z,9.27
2023-04-16T04:40:39.939Z,12.03
2023-04-16T04:41:41.518Z,10.13
2023-04-16T04:42:43.129Z,8.97
2023-04-16T04:43:44.654Z,8.97
2023-04-16T04:44:46.747Z,11.57
2023-04-16T04:45:49.301Z,11.13
2023-04-16T04:46:51.078Z,14.37
2023-04-16T04:47:53.119Z,11.37
2023-04-16T04:48:54.668Z,10.27
2023-04-16T04:49:56.225Z,10.67
2023-04-16T04:50:57.809Z,9.47
2023-04-16T04:51:59.425Z,10.50
2023-04-16T04:53:00.994Z,9.97
2023-04-16T04:54:02.532Z,9.10
2023-04-16T04:55:04.309Z,10.40
2023-04-16T04:56:12.326Z,11.73
2023-04-16T04:57:14.482Z,13.87
2023-04-16T04:58:16.023Z,10.00
2023-04-16T04:59:17.582Z,13.20
2023-04-16T05:00:19.340Z,11.57
2023-04-16T05:01:21.177Z,11.90
2023-04-16T05:02:22.804Z,15.63
2023-04-16T05:03:24.471Z,12.93
2023-04-16T05:04:26.313Z,12.47
2023-04-16T05:05:27.986Z,12.43
2023-04-16T05:06:29.702Z,14.57
2023-04-16T05:07:31.652Z,11.03
2023-04-16T05:08:33.354Z,14.53
2023-04-16T05:09:34.917Z,11.83
2023-04-16T05:10:36.453Z,11.40
2023-04-16T05:11:39.266Z,15.80
2023-04-16T05:12:40.855Z,14.60
2023-04-16T05:13:42.483Z,13.90
2023-04-16T05:14:44.038Z,16.03
2023-04-16T05:15:46.173Z,18.40
2023-04-16T05:16:47.758Z,17.23
2023-04-16T05:17:49.331Z,14.60
2023-04-16T05:18:50.953Z,14.40
2023-04-16T05:19:52.534Z,14.73
2023-04-16T05:20:54.131Z,15.70
2023-04-16T05:21:55.964Z,12.33
2023-04-16T05:22:57.486Z,12.80
2023-04-16T05:23:59.082Z,12.23
2023-04-16T05:25:00.730Z,11.73
2023-04-16T05:26:02.266Z,9.37
2023-04-16T05:27:03.885Z,9.57
2023-04-16T05:28:05.525Z,11.90
2023-04-16T05:29:07.165Z,10.00
2023-04-16T05:30:09.829Z,9.47
2023-04-16T05:31:11.406Z,7.50
2023-04-16T05:32:12.960Z,9.63
2023-04-16T05:33:14.535Z,9.93
2023-04-16T05:34:16.085Z,11.40
2023-04-16T05:35:17.862Z,10.37
2023-04-16T05:36:19.496Z,11.10
2023-04-16T05:37:21.081Z,11.47
2023-04-16T05:38:22.681Z,10.30
2023-04-16T05:39:24.246Z,9.00
2023-04-16T05:40:26.222Z,8.93
2023-04-16T05:41:27.795Z,9.60
2023-04-16T05:42:29.536Z,10.93
2023-04-16T05:43:31.210Z,10.60
2023-04-16T05:44:34.056Z,8.03
2023-04-16T05:45:40.882Z,9.90
2023-04-16T05:46:42.507Z,11.93
2023-04-16T05:47:44.356Z,13.00
2023-04-16T05:48:46.149Z,10.37
2023-04-16T05:49:47.663Z,10.07
2023-04-16T05:50:49.430Z,7.73
2023-04-16T05:51:51.190Z,11.13
2023-04-16T05:52:52.688Z,11.37
2023-04-16T05:53:54.228Z,10.20
2023-04-16T05:54:55.939Z,9.20
2023-04-16T05:55:57.537Z,9.83
2023-04-16T05:57:01.094Z,9.40
2023-04-16T05:58:05.929Z,8.17
2023-04-16T05:59:07.691Z,9.43
2023-04-16T06:00:09.743Z,10.20
2023-04-16T06:01:11.546Z,9.70
2023-04-16T06:02:13.213Z,12.10
2023-04-16T06:03:14.964Z,6.73
2023-04-16T06:04:16.774Z,11.50
2023-04-16T06:05:18.778Z,7.83
2023-04-16T06:06:20.381Z,7.93
2023-04-16T06:07:22.509Z,8.37
2023-04-16T06:08:24.108Z,9.47
2023-04-16T06:09:25.609Z,6.77
2023-04-16T06:10:27.453Z,9.00
2023-04-16T06:11:30.672Z,7.53
2023-04-16T06:12:32.273Z,9.40
2023-04-16T06:13:33.807Z,11.43
2023-04-16T06:14:35.750Z,9.33
2023-04-16T06:15:37.438Z,7.77
2023-04-16T06:16:39.018Z,9.70
2023-04-16T06:17:40.828Z,7.47
2023-04-16T06:18:42.416Z,7.73
2023-04-16T06:19:43.994Z,11.80
2023-04-16T06:20:45.648Z,6.87
2023-04-16T06:21:47.390Z,7.23
2023-04-16T06:22:48.972Z,6.80
2023-04-16T06:23:50.555Z,7.97
2023-04-16T06:24:53.237Z,5.13
2023-04-16T06:25:55.267Z,7.00
2023-04-16T06:26:57.533Z,9.13
2023-04-16T06:27:59.069Z,11.97
2023-04-16T06:29:01.077Z,10.40
2023-04-16T06:30:02.603Z,8.23
2023-04-16T06:31:04.578Z,11.97
2023-04-16T06:32:06.273Z,8.83
2023-04-16T06:33:07.872Z,6.67
2023-04-16T06:34:09.418Z,5.97
2023-04-16T06:35:10.991Z,7.77
2023-04-16T06:36:12.612Z,7.87
2023-04-16T06:37:14.169Z,8.23
2023-04-16T06:38:15.716Z,8.17
2023-04-16T06:39:17.375Z,8.50
2023-04-16T06:40:18.893Z,8.77
2023-04-16T06:41:22.748Z,10.00
2023-04-16T06:42:24.340Z,9.00
2023-04-16T06:43:26.105Z,8.33
2023-04-16T06:44:27.653Z,7.47
2023-04-16T06:45:29.188Z,7.63
2023-04-16T06:46:30.988Z,4.60
2023-04-16T06:47:32.622Z,9.57
2023-04-16T06:48:34.178Z,7.80
2023-04-16T06:49:35.833Z,8.33
2023-04-16T06:50:37.728Z,7.47
2023-04-16T06:51:39.281Z,9.00
2023-04-16T06:52:40.881Z,7.40
2023-04-16T06:53:42.657Z,7.73
2023-04-16T06:54:44.223Z,11.63
2023-04-16T06:55:45.947Z,8.77
2023-04-16T06:56:47.546Z,10.10
2023-04-16T06:57:49.133Z,11.70
2023-04-16T06:58:51.361Z,10.17
2023-04-16T06:59:52.909Z,9.93
2023-04-16T07:00:54.526Z,7.90
2023-04-16T07:01:56.808Z,8.53
2023-04-16T07:03:00.328Z,11.07
2023-04-16T07:04:02.407Z,9.97
2023-04-16T07:05:04.535Z,7.37
2023-04-16T07:06:06.251Z,6.57
2023-04-16T07:07:08.822Z,8.87
2023-04-16T07:08:10.596Z,8.57
2023-04-16T07:09:12.445Z,8.70
2023-04-16T07:10:14.137Z,9.73
2023-04-16T07:11:15.756Z,8.67
2023-04-16T07:12:17.493Z,12.73
2023-04-16T07:13:19.075Z,12.13
2023-04-16T07:14:20.689Z,8.97
2023-04-16T07:15:22.274Z,10.37
2023-04-16T07:16:23.934Z,11.57
2023-04-16T07:17:25.688Z,11.57
2023-04-16T07:18:27.428Z,10.03
2023-04-16T07:19:32.481Z,13.27
2023-04-16T07:20:34.056Z,10.97
2023-04-16T07:21:35.786Z,14.47
2023-04-16T07:22:37.385Z,8.17
2023-04-16T07:23:38.915Z,8.80
2023-04-16T07:24:40.495Z,10.67
2023-04-16T07:25:42.464Z,12.20
2023-04-16T07:26:44.021Z,13.13
2023-04-16T07:27:45.588Z,8.00
2023-04-16T07:28:47.103Z,8.57
2023-04-16T07:29:50.343Z,8.03
2023-04-16T07:30:52.015Z,9.70
2023-04-16T07:31:53.583Z,13.17
2023-04-16T07:32:56.481Z,11.17
2023-04-16T07:33:58.676Z,9.93
2023-04-16T07:35:00.472Z,9.90
2023-04-16T07:36:02.020Z,11.30
2023-04-16T07:37:03.600Z,10.50
2023-04-16T07:38:05.933Z,10.03
2023-04-16T07:39:07.583Z,7.60
2023-04-16T07:40:09.625Z,12.10
2023-04-16T07:41:11.178Z,10.63
2023-04-16T07:42:12.801Z,14.57
2023-04-16T07:43:17.413Z,14.53
2023-04-16T07:44:18.932Z,10.77
2023-04-16T07:45:20.492Z,11.43
2023-04-16T07:46:22.107Z,10.23
2023-04-16T07:47:23.843Z,10.60
2023-04-16T07:48:25.513Z,10.93
2023-04-16T07:49:27.087Z,11.60
2023-04-16T07:50:28.650Z,12.53
2023-04-16T07:51:30.291Z,11.60
2023-04-16T07:52:31.830Z,11.03
2023-04-16T07:53:33.434Z,9.43
2023-04-16T07:54:34.964Z,7.87
2023-04-16T07:55:36.546Z,9.87
2023-04-16T07:56:38.095Z,8.50
2023-04-16T07:57:41.083Z,9.60
2023-04-16T07:58:42.623Z,8.30
2023-04-16T07:59:44.154Z,7.30
2023-04-16T08:00:45.901Z,6.20
2023-04-16T08:01:47.460Z,9.50
2023-04-16T08:02:49.269Z,7.20
2023-04-16T08:03:51.347Z,11.00
2023-04-16T08:04:53.120Z,8.93
2023-04-16T08:05:54.757Z,11.00
2023-04-16T08:06:56.416Z,7.03
2023-04-16T08:07:58.015Z,8.63
2023-04-16T08:08:59.528Z,5.80
2023-04-16T08:10:01.444Z,8.87
2023-04-16T08:11:03.177Z,8.17
2023-04-16T08:12:05.078Z,8.07
2023-04-16T08:13:06.635Z,6.43
2023-04-16T08:14:08.408Z,6.53
2023-04-16T08:15:10.304Z,6.90
2023-04-16T08:16:12.162Z,6.27
2023-04-16T08:17:17.389Z,4.47
2023-04-16T08:18:19.299Z,5.83
2023-04-16T08:19:20.902Z,7.73
2023-04-16T08:20:22.651Z,5.40
2023-04-16T08:21:24.207Z,5.47
2023-04-16T08:22:26.473Z,8.27
2023-04-16T08:23:28.127Z,7.70
2023-04-16T08:24:29.650Z,7.30
2023-04-16T08:25:31.224Z,6.00
2023-04-16T08:26:32.757Z,7.70
2023-04-16T08:27:34.263Z,9.20
2023-04-16T08:28:35.928Z,4.77
2023-04-16T08:29:37.720Z,7.27
2023-04-16T08:30:39.399Z,4.87
2023-04-16T08:31:41.708Z,6.75
2023-04-16T08:32:43.781Z,4.37
2023-04-16T08:33:45.402Z,7.77
2023-04-16T08:34:46.997Z,5.90
2023-04-16T08:35:48.554Z,4.20
2023-04-16T08:36:50.112Z,4.07
2023-04-16T08:37:51.703Z,4.30
2023-04-16T08:38:53.284Z,5.33
2023-04-16T08:39:54.797Z,5.68
2023-04-16T08:40:58.979Z,5.63
2023-04-16T08:42:04.725Z,6.17
2023-04-16T08:43:13.733Z,5.23
2023-04-16T08:44:21.879Z,4.68
2023-04-16T08:45:25.997Z,7.37
2023-04-16T08:46:30.127Z,4.07
2023-04-16T08:47:34.462Z,4.53
2023-04-16T08:48:37.384Z,6.57
2023-04-16T08:49:43.970Z,6.35
2023-04-16T08:50:46.748Z,3.58
2023-04-16T08:51:52.204Z,4.63
2023-04-16T08:52:58.160Z,3.50
2023-04-16T08:54:08.592Z,4.17
2023-04-16T08:55:14.439Z,4.32
2023-04-16T08:56:19.892Z,5.60
2023-04-16T08:57:23.963Z,2.50
2023-04-16T08:58:31.840Z,4.30
2023-04-16T08:59:34.187Z,5.93
2023-04-16T09:00:38.322Z,3.20
2023-04-16T09:01:41.950Z,5.43
2023-04-16T09:02:43.934Z,5.90
2023-04-16T09:03:48.318Z,5.13
2023-04-16T09:04:51.539Z,4.30
2023-04-16T09:05:55.566Z,3.07
2023-04-16T09:06:58.991Z,5.13
2023-04-16T09:08:00.643Z,3.00
2023-04-16T09:09:04.861Z,3.77
2023-04-16T09:10:08.342Z,5.75
2023-04-16T09:11:10.132Z,4.23
2023-04-16T09:12:12.092Z,4.97
2023-04-16T09:13:16.437Z,3.72
2023-04-16T09:14:18.383Z,4.40
2023-04-16T09:15:21.296Z,2.95
2023-04-16T09:16:24.978Z,1.70
2023-04-16T09:17:27.287Z,4.87
2023-04-16T09:18:28.863Z,2.83
2023-04-16T09:19:30.679Z,3.38
2023-04-16T09:20:32.206Z,1.75
2023-04-16T09:21:33.776Z,4.97
2023-04-16T09:22:36.298Z,4.50
2023-04-16T09:23:41.082Z,1.98
2023-04-16T09:24:42.752Z,4.83
2023-04-16T09:25:44.570Z,1.58
2023-04-16T09:26:46.598Z,3.20
2023-04-16T09:27:51.020Z,4.47
2023-04-16T09:28:52.580Z,4.20
2023-04-16T09:29:54.177Z,2.92
2023-04-16T09:31:08.912Z,1.95
2023-04-16T09:32:11.953Z,3.28
2023-04-16T09:33:24.729Z,4.15
2023-04-16T09:34:27.105Z,3.65
2023-04-16T09:35:45.721Z,4.40
2023-04-16T09:36:47.366Z,2.55
2023-04-16T09:37:58.238Z,2.72
2023-04-16T09:39:00.854Z,3.30
2023-04-16T09:40:04.403Z,3.40
2023-04-16T09:41:08.238Z,1.45
2023-04-16T09:42:10.910Z,1.70
2023-04-16T09:43:14.504Z,3.08
2023-04-16T09:44:16.230Z,2.35
2023-04-16T09:45:17.848Z,1.92
2023-04-16T09:46:19.455Z,4.70
2023-04-16T09:47:22.198Z,2.55
2023-04-16T09:48:33.776Z,4.32
2023-04-16T09:49:41.097Z,1.42
2023-04-16T09:50:52.192Z,2.78
2023-04-16T09:51:56.338Z,2.65
2023-04-16T09:53:02.635Z,3.00
2023-04-16T09:54:07.746Z,3.42
2023-04-16T09:55:09.462Z,4.22
2023-04-16T09:56:12.370Z,2.17
2023-04-16T09:57:14.990Z,1.63
2023-04-16T09:58:20.112Z,4.10
2023-04-16T09:59:23.672Z,3.28
2023-04-16T10:00:25.561Z,2.53
2023-04-16T10:01:27.201Z,3.42
2023-04-16T10:02:29.748Z,3.92
2023-04-16T10:03:33.295Z,2.33
2023-04-16T10:04:48.613Z,5.33
2023-04-16T10:05:53.785Z,3.37
2023-04-16T10:07:05.903Z,4.38
2023-04-16T10:08:14.955Z,2.37
2023-04-16T10:09:16.573Z,4.20
2023-04-16T10:10:18.302Z,1.50
2023-04-16T10:11:21.414Z,4.07
2023-04-16T10:12:23.035Z,1.60
2023-04-16T10:13:27.784Z,3.75
2023-04-16T10:14:29.440Z,2.80
2023-04-16T10:15:31.149Z,2.10
2023-04-16T10:16:33.789Z,3.08
2023-04-16T10:17:36.575Z,2.75
2023-04-16T10:18:40.646Z,3.38
2023-04-16T10:19:42.335Z,3.77
2023-04-16T10:20:44.654Z,2.53
2023-04-16T10:21:46.452Z,3.70
2023-04-16T10:22:48.838Z,1.55
2023-04-16T10:23:52.143Z,2.30
2023-04-16T10:24:54.793Z,2.65
2023-04-16T10:25:58.596Z,2.38
2023-04-16T10:27:00.715Z,1.45
2023-04-16T10:28:03.366Z,2.83
2023-04-16T10:29:06.769Z,2.15
2023-04-16T10:30:09.443Z,2.47
2023-04-16T10:31:12.594Z,2.88
2023-04-16T10:32:14.647Z,1.13
2023-04-16T10:33:16.364Z,2.20
2023-04-16T10:34:18.579Z,2.72
2023-04-16T10:35:21.369Z,2.72
2023-04-16T10:36:25.056Z,3.08
2023-04-16T10:37:31.397Z,4.22
2023-04-16T10:38:33.264Z,2.40
2023-04-16T10:39:39.137Z,2.08
2023-04-16T10:40:45.079Z,4.30
2023-04-16T10:41:46.953Z,2.50
2023-04-16T10:42:59.564Z,0.90
2023-04-16T10:44:11.107Z,1.23
2023-04-16T10:45:12.656Z,1.75
2023-04-16T10:46:21.262Z,2.33
2023-04-16T10:47:24.943Z,2.25
2023-04-16T10:48:30.800Z,2.13
2023-04-16T10:49:37.331Z,2.28
2023-04-16T10:50:39.764Z,3.00
2023-04-16T10:51:42.068Z,1.50
2023-04-16T10:52:43.640Z,2.42
2023-04-16T10:53:45.272Z,1.88
2023-04-16T10:54:48.512Z,2.75
2023-04-16T10:56:15.428Z,5.50
2023-04-16T10:57:19.682Z,1.88
2023-04-16T10:58:31.670Z,2.35
2023-04-16T10:59:35.293Z,3.72
2023-04-16T11:00:51.186Z,2.50
2023-04-16T11:01:56.035Z,3.72
2023-04-16T11:02:57.824Z,6.45
2023-04-16T11:04:02.059Z,2.22
2023-04-16T11:05:04.036Z,3.35
2023-04-16T11:06:17.639Z,2.58
2023-04-16T11:07:20.936Z,2.17
2023-04-16T11:08:23.798Z,1.95
2023-04-16T11:10:05.745Z,1.55
2023-04-16T11:11:07.726Z,2.47
2023-04-16T11:12:12.750Z,1.27
2023-04-16T11:13:15.834Z,1.95
2023-04-16T11:14:17.602Z,2.42
2023-04-16T11:15:23.370Z,6.40
2023-04-16T11:16:26.301Z,2.70
2023-04-16T11:17:36.585Z,1.45
2023-04-16T11:18:41.620Z,2.10
2023-04-16T11:19:53.616Z,2.40
2023-04-16T11:20:55.589Z,1.23
2023-04-16T11:21:57.303Z,2.75
2023-04-16T11:22:59.065Z,1.65
2023-04-16T11:24:00.627Z,2.75
2023-04-16T11:25:02.602Z,4.75
2023-04-16T11:26:04.185Z,4.72
2023-04-16T11:27:06.033Z,2.28
2023-04-16T11:28:07.589Z,1.55
2023-04-16T11:29:15.284Z,1.50
2023-04-16T11:30:17.354Z,0.80
2023-04-16T11:31:18.967Z,1.83
2023-04-16T11:32:22.684Z,2.13
2023-04-16T11:33:25.357Z,2.92
2023-04-16T11:34:27.460Z,1.95
2023-04-16T11:35:29.078Z,3.05
2023-04-16T11:36:43.632Z,5.47
2023-04-16T11:37:46.391Z,2.70
2023-04-16T11:38:47.968Z,3.97
2023-04-16T11:39:51.333Z,6.40
2023-04-16T11:40:54.116Z,3.00
2023-04-16T11:41:56.040Z,2.35
2023-04-16T11:43:03.227Z,2.67
2023-04-16T11:44:21.396Z,2.70
2023-04-16T11:45:23.071Z,3.40
2023-04-16T11:46:38.193Z,2.88
2023-04-16T11:47:55.530Z,2.05
2023-04-16T11:48:57.144Z,1.98
2023-04-16T11:50:15.018Z,2.50
2023-04-16T11:51:17.112Z,1.25
2023-04-16T11:52:33.923Z,2.83
2023-04-16T11:53:37.119Z,1.77
2023-04-16T11:54:38.781Z,0.85
2023-04-16T11:55:45.671Z,3.70
2023-04-16T11:56:48.729Z,1.73
2023-04-16T11:57:51.918Z,4.22
2023-04-16T11:59:10.009Z,3.88
2023-04-16T12:00:15.866Z,2.40
2023-04-16T12:01:21.465Z,2.83
2023-04-16T12:02:50.139Z,1.98
2023-04-16T12:04:02.509Z,3.85
2023-04-16T12:05:30.985Z,3.93
2023-04-16T12:06:32.859Z,3.13
2023-04-16T12:07:45.714Z,3.72
2023-04-16T12:08:47.275Z,3.80
2023-04-16T12:09:49.272Z,2.00
2023-04-16T12:10:55.218Z,2.75
2023-04-16T12:11:56.852Z,3.58
2023-04-16T12:13:15.157Z,3.63
2023-04-16T12:14:16.726Z,1.45
2023-04-16T12:15:18.402Z,4.50
2023-04-16T12:16:21.100Z,1.10
2023-04-16T12:17:23.540Z,0.68
2023-04-16T12:18:27.099Z,2.30
2023-04-16T12:19:28.871Z,2.78
2023-04-16T12:20:40.447Z,2.50
2023-04-16T12:21:47.152Z,3.70
2023-04-16T12:22:49.725Z,2.50
2023-04-16T12:23:54.113Z,2.13
2023-04-16T12:24:58.265Z,1.88
2023-04-16T12:26:10.430Z,2.17
2023-04-16T12:27:13.015Z,3.80
2023-04-16T12:28:16.544Z,3.30
2023-04-16T12:29:22.411Z,3.25
2023-04-16T12:30:26.752Z,3.13
2023-04-16T12:31:38.290Z,4.25
2023-04-16T12:32:41.913Z,3.13
2023-04-16T12:33:43.559Z,2.65
2023-04-16T12:34:51.656Z,2.55
2023-04-16T12:35:53.210Z,2.15
2023-04-16T12:37:09.621Z,4.03
2023-04-16T12:38:12.043Z,4.80
2023-04-16T12:39:15.092Z,3.97
2023-04-16T12:40:16.733Z,5.28
2023-04-16T12:41:18.414Z,2.53
2023-04-16T12:42:21.133Z,5.78
2023-04-16T12:43:22.779Z,3.70
2023-04-16T12:44:24.334Z,3.53
2023-04-16T12:45:26.082Z,5.03
2023-04-16T12:46:27.638Z,2.03
2023-04-16T12:47:29.284Z,3.55
2023-04-16T12:48:32.328Z,2.10
2023-04-16T12:49:33.902Z,2.92
2023-04-16T12:50:35.584Z,1.40
2023-04-16T12:51:38.326Z,3.38
2023-04-16T12:52:39.963Z,1.50
2023-04-16T12:53:41.720Z,1.83
2023-04-16T12:54:43.412Z,2.97
2023-04-16T12:55:45.551Z,3.38
2023-04-16T12:56:47.138Z,1.30
2023-04-16T12:57:49.185Z,4.05
2023-04-16T12:58:51.916Z,2.80
2023-04-16T12:59:53.456Z,2.88
2023-04-16T13:00:54.987Z,2.60
2023-04-16T13:01:56.538Z,3.80
2023-04-16T13:02:58.203Z,3.80
2023-04-16T13:04:00.179Z,3.38
2023-04-16T13:05:02.070Z,3.05
2023-04-16T13:06:04.405Z,3.45
2023-04-16T13:07:06.033Z,3.30
2023-04-16T13:08:07.593Z,3.20
2023-04-16T13:09:09.333Z,3.65
2023-04-16T13:10:12.073Z,2.90
2023-04-16T13:11:13.762Z,4.63
2023-04-16T13:12:15.676Z,3.77
2023-04-16T13:13:17.294Z,1.67
2023-04-16T13:14:20.407Z,3.60
2023-04-16T13:15:21.931Z,3.27
2023-04-16T13:16:23.811Z,4.47
2023-04-16T13:17:25.485Z,5.83
2023-04-16T13:18:29.575Z,3.63
2023-04-16T13:19:31.482Z,4.80
2023-04-16T13:20:33.513Z,5.27
2023-04-16T13:21:35.079Z,4.13
2023-04-16T13:22:36.847Z,5.23
2023-04-16T13:23:38.409Z,6.10
2023-04-16T13:24:40.037Z,7.33
2023-04-16T13:25:41.612Z,3.83
2023-04-16T13:26:43.528Z,6.83
2023-04-16T13:27:45.139Z,3.57
2023-04-16T13:28:46.728Z,4.27
2023-04-16T13:29:48.293Z,4.50
2023-04-16T13:30:50.097Z,4.37
2023-04-16T13:31:52.151Z,3.43
2023-04-16T13:32:54.033Z,4.90
2023-04-16T13:33:55.785Z,5.07
2023-04-16T13:34:57.336Z,4.47
2023-04-16T13:35:58.900Z,3.23
2023-04-16T13:37:00.466Z,3.60
2023-04-16T13:38:02.007Z,3.27
2023-04-16T13:39:10.809Z,2.63
2023-04-16T13:40:12.629Z,3.27
2023-04-16T13:41:14.184Z,2.53
2023-04-16T13:42:15.723Z,4.53
2023-04-16T13:43:18.925Z,4.17
2023-04-16T13:44:20.527Z,4.20
2023-04-16T13:45:22.160Z,3.17
2023-04-16T13:46:23.871Z,2.67
2023-04-16T13:47:26.230Z,6.03
2023-04-16T13:48:28.583Z,4.07
2023-04-16T13:50:32.516Z,2.17
2023-04-16T13:51:34.098Z,3.10
2023-04-16T13:52:36.387Z,2.83
2023-04-16T13:53:38.002Z,3.93